Kerveros — HPJR — position and weather

sailwx.info

Track history (hours):
 
Tides and Currents Weather Stations Pressure Air Temp Water Temp Dewpoint Dewpoint Depression Visibility Wind Speed Wind Dir Waves Ship Positions

Kerveros

Last reported at 2018-Feb-13 14:27 UTC. Time now 2018-Feb-22 23:03 UTC.
Position S 23°24' W 042°24'.
Warning: this ship's position is 9 days out of date.

Length 225 m; draft 12.6 m.

Type: Cargo ship. MMSI: 354327000.

Date/timePositionNaut miles runAvg speedWind from/ knotsBaromVisibWave heightAir tempDewpointWater temp
2018-Feb-13 14:27S 23°24' W 042°24'1611.2
2018-Feb-13 13:01S 23°15' W 042°38'010.9
2018-Feb-13 13:00S 23°15' W 042°38'610.9
2018-Feb-13 12:28S 23°12' W 042°44'510.8
2018-Feb-13 12:00S 23°09' W 042°48'611.1
2018-Feb-13 11:29S 23°06' W 042°53'611.5
2018-Feb-13 11:00S 23°04' W 042°59'611.5
2018-Feb-13 10:30S 23°01' W 043°04'510.3
2018-Feb-13 10:00S 22°59' W 043°10'5 9.1
2018-Feb-13 09:30S 22°55' W 043°09'1 2.1
2018-Feb-13 08:58S 22°53' W 043°09'0 0.1
2018-Feb-13 08:28S 22°53' W 043°09'0 0.3
2018-Feb-13 07:58S 22°53' W 043°09'0 0.3
2018-Feb-13 07:28S 22°53' W 043°09'0 0.1
2018-Feb-13 06:58S 22°53' W 043°09'0 0.1
2018-Feb-13 06:28S 22°53' W 043°09'0 0.0
2018-Feb-13 05:58S 22°53' W 043°09'0 0.0
2018-Feb-13 05:28S 22°53' W 043°09'0 0.0
2018-Feb-13 04:58S 22°53' W 043°09'0 0.1
2018-Feb-13 04:28S 22°53' W 043°09'0 0.0
2018-Feb-13 03:58S 22°53' W 043°09'0 0.0
2018-Feb-13 03:28S 22°53' W 043°09'0 0.0
2018-Feb-13 02:58S 22°53' W 043°09'0 0.0
2018-Feb-13 02:28S 22°53' W 043°09'0 0.0
2018-Feb-13 01:58S 22°53' W 043°09'0 0.0
2018-Feb-13 01:31S 22°53' W 043°09'0 0.0
2018-Feb-13 01:01S 22°53' W 043°09'0 0.0
2018-Feb-13 00:30S 22°53' W 043°09'0 0.0
2018-Feb-13 00:00S 22°53' W 043°09'0 0.3
2018-Feb-12 23:30S 22°53' W 043°09'0 0.2
2018-Feb-12 23:00S 22°53' W 043°09'0 0.1
2018-Feb-12 22:30S 22°53' W 043°09'0 0.0
2018-Feb-12 22:00S 22°53' W 043°09'0 0.0
2018-Feb-12 21:30S 22°53' W 043°09'0 0.0
2018-Feb-12 21:00S 22°53' W 043°09'0 0.0
2018-Feb-12 20:30S 22°53' W 043°09'0 0.0
2018-Feb-12 20:00S 22°53' W 043°09'0 0.0
2018-Feb-12 19:30S 22°53' W 043°09'0 0.0
2018-Feb-12 19:00S 22°53' W 043°09'0 0.1
2018-Feb-12 18:30S 22°53' W 043°09'0 0.2
2018-Feb-12 18:00S 22°53' W 043°09'0 0.3
2018-Feb-12 17:30S 22°53' W 043°09'0 0.1
2018-Feb-12 17:00S 22°53' W 043°09'0 0.1
2018-Feb-12 16:30S 22°53' W 043°09'0 0.0
2018-Feb-12 16:00S 22°53' W 043°09'0 0.0
2018-Feb-12 15:15S 22°53' W 043°09'0 0.0
2018-Feb-12 15:00S 22°53' W 043°09'0 0.0
2018-Feb-12 14:30S 22°53' W 043°09'0 0.0
2018-Feb-12 14:00S 22°53' W 043°09'0 0.0
2018-Feb-12 13:30S 22°53' W 043°09'0 0.1
2018-Feb-12 13:00S 22°53' W 043°09'0 0.3
2018-Feb-12 12:30S 22°53' W 043°09'0 0.3
2018-Feb-12 12:00S 22°53' W 043°09'0 0.1
2018-Feb-12 11:30S 22°53' W 043°09'0 0.1
2018-Feb-12 11:00S 22°53' W 043°09'0 0.0
2018-Feb-12 10:30S 22°53' W 043°09'0 0.0
2018-Feb-12 10:00S 22°53' W 043°09'1 2.5
2018-Feb-12 09:30S 22°55' W 043°09'4 8.1
2018-Feb-12 09:00S 22°59' W 043°10'4 7.7
2018-Feb-12 08:30S 23°02' W 043°07'2 4.1
2018-Feb-12 08:00S 23°04' W 043°06'0 0.1
2018-Feb-12 07:30S 23°04' W 043°06'0 0.2
2018-Feb-12 07:00S 23°04' W 043°06'0 0.1
2018-Feb-12 06:30S 23°03' W 043°06'0 0.0
2018-Feb-12 04:48S 23°03' W 043°06'0 0.1
2018-Feb-12 04:27S 23°03' W 043°06'0 0.0
2018-Feb-12 04:00S 23°03' W 043°06'0 0.0
2018-Feb-12 03:30S 23°04' W 043°06'0 0.0
2018-Feb-12 02:57S 23°03' W 043°06'0 0.0
2018-Feb-12 02:30S 23°04' W 043°06'0 0.1
2018-Feb-12 02:00S 23°04' W 043°06'0 0.0
2018-Feb-12 01:29S 23°04' W 043°06'0 0.0
2018-Feb-12 01:00S 23°04' W 043°06'0 0.0
2018-Feb-12 00:29S 23°04' W 043°06'0 0.0
2018-Feb-12 00:00S 23°04' W 043°06'0 0.0
2018-Feb-11 23:30S 23°04' W 043°06'0 0.0
2018-Feb-11 23:00S 23°04' W 043°06'0 0.0
2018-Feb-11 22:30S 23°04' W 043°06'0 0.1
2018-Feb-11 21:58S 23°04' W 043°06'1 2.9
2018-Feb-11 21:30S 23°05' W 043°07'4 8.4
2018-Feb-11 21:00S 23°06' W 043°11'510.7
2018-Feb-11 20:30S 23°09' W 043°16'612.0
2018-Feb-11 20:00S 23°12' W 043°22'612.1
2018-Feb-11 19:30S 23°15' W 043°28'612.1
2018-Feb-11 19:00S 23°18' W 043°33'612.1
2018-Feb-11 18:30S 23°21' W 043°39'612.3
2018-Feb-11 18:00S 23°24' W 043°45'  
Track history (hours):
 
Tides and Currents Weather Stations Pressure Air Temp Water Temp Dewpoint Dewpoint Depression Visibility Wind Speed Wind Dir Waves Ship Positions

Kerveros

Last reported at 2018-Feb-13 14:27 UTC. Time now 2018-Feb-22 23:03 UTC.
Position S 23°24' W 042°24'.
Warning: this ship's position is 9 days out of date.

Length 225 m; draft 12.6 m.

Type: Cargo ship. MMSI: 354327000.

Date/timePositionNaut miles runAvg speedWind from/ knotsBaromVisibWave heightAir tempDewpointWater temp
2018-Feb-13 14:27S 23°24' W 042°24'1611.2
2018-Feb-13 13:01S 23°15' W 042°38'010.9
2018-Feb-13 13:00S 23°15' W 042°38'610.9
2018-Feb-13 12:28S 23°12' W 042°44'510.8
2018-Feb-13 12:00S 23°09' W 042°48'611.1
2018-Feb-13 11:29S 23°06' W 042°53'611.5
2018-Feb-13 11:00S 23°04' W 042°59'611.5
2018-Feb-13 10:30S 23°01' W 043°04'510.3
2018-Feb-13 10:00S 22°59' W 043°10'5 9.1
2018-Feb-13 09:30S 22°55' W 043°09'1 2.1
2018-Feb-13 08:58S 22°53' W 043°09'0 0.1
2018-Feb-13 08:28S 22°53' W 043°09'0 0.3
2018-Feb-13 07:58S 22°53' W 043°09'0 0.3
2018-Feb-13 07:28S 22°53' W 043°09'0 0.1
2018-Feb-13 06:58S 22°53' W 043°09'0 0.1
2018-Feb-13 06:28S 22°53' W 043°09'0 0.0
2018-Feb-13 05:58S 22°53' W 043°09'0 0.0
2018-Feb-13 05:28S 22°53' W 043°09'0 0.0
2018-Feb-13 04:58S 22°53' W 043°09'0 0.1
2018-Feb-13 04:28S 22°53' W 043°09'0 0.0
2018-Feb-13 03:58S 22°53' W 043°09'0 0.0
2018-Feb-13 03:28S 22°53' W 043°09'0 0.0
2018-Feb-13 02:58S 22°53' W 043°09'0 0.0
2018-Feb-13 02:28S 22°53' W 043°09'0 0.0
2018-Feb-13 01:58S 22°53' W 043°09'0 0.0
2018-Feb-13 01:31S 22°53' W 043°09'0 0.0
2018-Feb-13 01:01S 22°53' W 043°09'0 0.0
2018-Feb-13 00:30S 22°53' W 043°09'0 0.0
2018-Feb-13 00:00S 22°53' W 043°09'0 0.3
2018-Feb-12 23:30S 22°53' W 043°09'0 0.2
2018-Feb-12 23:00S 22°53' W 043°09'0 0.1
2018-Feb-12 22:30S 22°53' W 043°09'0 0.0
2018-Feb-12 22:00S 22°53' W 043°09'0 0.0
2018-Feb-12 21:30S 22°53' W 043°09'0 0.0
2018-Feb-12 21:00S 22°53' W 043°09'0 0.0
2018-Feb-12 20:30S 22°53' W 043°09'0 0.0
2018-Feb-12 20:00S 22°53' W 043°09'0 0.0
2018-Feb-12 19:30S 22°53' W 043°09'0 0.0
2018-Feb-12 19:00S 22°53' W 043°09'0 0.1
2018-Feb-12 18:30S 22°53' W 043°09'0 0.2
2018-Feb-12 18:00S 22°53' W 043°09'0 0.3
2018-Feb-12 17:30S 22°53' W 043°09'0 0.1
2018-Feb-12 17:00S 22°53' W 043°09'0 0.1
2018-Feb-12 16:30S 22°53' W 043°09'0 0.0
2018-Feb-12 16:00S 22°53' W 043°09'0 0.0
2018-Feb-12 15:15S 22°53' W 043°09'0 0.0
2018-Feb-12 15:00S 22°53' W 043°09'0 0.0
2018-Feb-12 14:30S 22°53' W 043°09'0 0.0
2018-Feb-12 14:00S 22°53' W 043°09'0 0.0
2018-Feb-12 13:30S 22°53' W 043°09'0 0.1
2018-Feb-12 13:00S 22°53' W 043°09'0 0.3
2018-Feb-12 12:30S 22°53' W 043°09'0 0.3
2018-Feb-12 12:00S 22°53' W 043°09'0 0.1
2018-Feb-12 11:30S 22°53' W 043°09'0 0.1
2018-Feb-12 11:00S 22°53' W 043°09'0 0.0
2018-Feb-12 10:30S 22°53' W 043°09'0 0.0
2018-Feb-12 10:00S 22°53' W 043°09'1 2.5
2018-Feb-12 09:30S 22°55' W 043°09'4 8.1
2018-Feb-12 09:00S 22°59' W 043°10'4 7.7
2018-Feb-12 08:30S 23°02' W 043°07'2 4.1
2018-Feb-12 08:00S 23°04' W 043°06'0 0.1
2018-Feb-12 07:30S 23°04' W 043°06'0 0.2
2018-Feb-12 07:00S 23°04' W 043°06'0 0.1
2018-Feb-12 06:30S 23°03' W 043°06'0 0.0
2018-Feb-12 04:48S 23°03' W 043°06'0 0.1
2018-Feb-12 04:27S 23°03' W 043°06'0 0.0
2018-Feb-12 04:00S 23°03' W 043°06'0 0.0
2018-Feb-12 03:30S 23°04' W 043°06'0 0.0
2018-Feb-12 02:57S 23°03' W 043°06'0 0.0
2018-Feb-12 02:30S 23°04' W 043°06'0 0.1
2018-Feb-12 02:00S 23°04' W 043°06'0 0.0
2018-Feb-12 01:29S 23°04' W 043°06'0 0.0
2018-Feb-12 01:00S 23°04' W 043°06'0 0.0
2018-Feb-12 00:29S 23°04' W 043°06'0 0.0
2018-Feb-12 00:00S 23°04' W 043°06'0 0.0
2018-Feb-11 23:30S 23°04' W 043°06'0 0.0
2018-Feb-11 23:00S 23°04' W 043°06'0 0.0
2018-Feb-11 22:30S 23°04' W 043°06'0 0.1
2018-Feb-11 21:58S 23°04' W 043°06'1 2.9
2018-Feb-11 21:30S 23°05' W 043°07'4 8.4
2018-Feb-11 21:00S 23°06' W 043°11'510.7
2018-Feb-11 20:30S 23°09' W 043°16'612.0
2018-Feb-11 20:00S 23°12' W 043°22'612.1
2018-Feb-11 19:30S 23°15' W 043°28'612.1
2018-Feb-11 19:00S 23°18' W 043°33'612.1
2018-Feb-11 18:30S 23°21' W 043°39'612.3
2018-Feb-11 18:00S 23°24' W 043°45'  

Dump ship's entire track history